createdAt,value
2018-07-31T00:01:09.710Z,24.20
2018-07-31T00:03:41.174Z,24.20
2018-07-31T00:06:18.081Z,24.20
2018-07-31T00:08:49.972Z,24.20
2018-07-31T00:11:21.272Z,24.10
2018-07-31T00:13:52.748Z,23.90
2018-07-31T00:18:54.304Z,23.90
2018-07-31T00:21:25.654Z,23.80
2018-07-31T00:26:27.547Z,23.70
2018-07-31T00:31:29.189Z,23.80
2018-07-31T00:34:00.598Z,23.80
2018-07-31T00:36:31.968Z,23.80
2018-07-31T00:39:03.180Z,23.70
2018-07-31T00:41:34.205Z,23.60
2018-07-31T00:44:05.576Z,23.60
2018-07-31T00:46:37.230Z,23.60
2018-07-31T00:49:08.490Z,23.60
2018-07-31T00:51:39.833Z,23.50
2018-07-31T00:54:10.779Z,23.50
2018-07-31T00:56:42.096Z,23.50
2018-07-31T00:59:13.060Z,23.50
2018-07-31T01:01:44.134Z,23.60
2018-07-31T01:04:15.730Z,23.50
2018-07-31T01:06:47.445Z,23.60
2018-07-31T01:09:18.735Z,23.50
2018-07-31T01:11:50.106Z,23.50
2018-07-31T01:14:22.911Z,23.50
2018-07-31T01:16:54.887Z,23.30
2018-07-31T01:19:26.404Z,23.30
2018-07-31T01:21:58.105Z,23.10
2018-07-31T01:24:29.398Z,23.20
2018-07-31T01:27:00.700Z,23.30
2018-07-31T01:32:02.344Z,23.20
2018-07-31T01:34:33.633Z,23.20
2018-07-31T01:37:04.844Z,23.20
2018-07-31T01:39:36.810Z,23.30
2018-07-31T01:44:38.888Z,23.20
2018-07-31T01:47:10.232Z,23.10
2018-07-31T01:49:41.218Z,23.00
2018-07-31T01:52:12.381Z,22.90
2018-07-31T01:54:43.299Z,22.80
2018-07-31T01:57:14.388Z,22.80
2018-07-31T01:59:45.687Z,22.70
2018-07-31T02:02:16.983Z,22.70
2018-07-31T02:09:49.067Z,22.80
2018-07-31T02:12:20.146Z,22.80
2018-07-31T02:14:51.052Z,22.60
2018-07-31T02:17:22.178Z,22.60
2018-07-31T02:19:53.330Z,22.60
2018-07-31T02:22:24.607Z,22.60
2018-07-31T02:27:25.785Z,22.50
2018-07-31T02:30:01.608Z,22.50
2018-07-31T02:37:33.386Z,22.10
2018-07-31T02:40:04.651Z,22.00
2018-07-31T02:45:10.756Z,22.00
2018-07-31T02:47:42.246Z,22.10
2018-07-31T02:50:13.696Z,22.00
2018-07-31T02:52:45.070Z,21.90
2018-07-31T02:58:26.272Z,21.70
2018-07-31T03:00:57.579Z,21.70
2018-07-31T03:03:28.933Z,21.70
2018-07-31T03:05:59.999Z,21.60
2018-07-31T03:08:31.475Z,21.70
2018-07-31T03:13:33.369Z,21.80
2018-07-31T03:16:04.726Z,21.70
2018-07-31T03:18:36.109Z,21.60
2018-07-31T03:21:07.403Z,21.60
2018-07-31T03:23:39.684Z,21.40
2018-07-31T03:26:27.221Z,21.20
2018-07-31T03:28:58.485Z,21.10
2018-07-31T03:31:29.908Z,21.10
2018-07-31T03:34:01.292Z,21.00
2018-07-31T03:36:32.569Z,20.90
2018-07-31T03:39:04.165Z,21.00
2018-07-31T03:41:35.497Z,21.20
2018-07-31T03:44:07.239Z,21.20
2018-07-31T03:46:38.502Z,21.20
2018-07-31T03:49:22.710Z,21.10
2018-07-31T03:54:24.579Z,20.90
2018-07-31T03:59:26.035Z,20.90
2018-07-31T04:01:57.429Z,20.70
2018-07-31T04:04:28.831Z,20.70
2018-07-31T04:07:00.489Z,20.70
2018-07-31T04:09:31.858Z,20.80
2018-07-31T04:12:03.694Z,20.90
2018-07-31T04:17:05.461Z,21.00
2018-07-31T04:19:36.571Z,20.80
2018-07-31T04:22:07.849Z,20.80
2018-07-31T04:24:39.565Z,20.90
2018-07-31T04:27:10.895Z,20.90
2018-07-31T04:29:42.517Z,21.20
2018-07-31T04:32:13.729Z,21.30
2018-07-31T04:34:44.953Z,21.40
2018-07-31T04:37:16.217Z,21.40
2018-07-31T04:39:47.535Z,21.50
2018-07-31T04:42:19.032Z,21.70
2018-07-31T04:44:50.381Z,21.90
2018-07-31T04:47:21.818Z,22.00
2018-07-31T04:49:52.975Z,22.20
2018-07-31T04:52:24.412Z,22.70
2018-07-31T04:54:55.809Z,23.10
2018-07-31T04:57:27.193Z,23.30
2018-07-31T04:59:58.801Z,23.60
2018-07-31T05:02:29.986Z,23.70
2018-07-31T05:05:01.318Z,23.20
2018-07-31T05:07:32.714Z,23.10
2018-07-31T05:10:03.926Z,22.70
2018-07-31T05:12:35.163Z,23.40
2018-07-31T05:15:06.880Z,24.50
2018-07-31T05:17:39.211Z,24.60
2018-07-31T05:20:11.778Z,24.40
2018-07-31T05:22:43.269Z,24.30
2018-07-31T05:25:14.649Z,23.80
2018-07-31T05:27:46.036Z,23.80
2018-07-31T05:30:17.488Z,23.70
2018-07-31T05:32:49.174Z,23.00
2018-07-31T05:35:20.677Z,22.80
2018-07-31T05:37:51.902Z,22.80
2018-07-31T05:40:23.234Z,22.80
2018-07-31T05:42:55.014Z,23.30
2018-07-31T05:45:26.318Z,24.30
2018-07-31T05:47:57.754Z,25.00
2018-07-31T05:50:29.098Z,25.80
2018-07-31T05:53:00.349Z,26.40
2018-07-31T05:55:31.548Z,27.60
2018-07-31T05:58:03.010Z,28.30
2018-07-31T06:00:34.288Z,28.90
2018-07-31T06:03:05.765Z,29.20
2018-07-31T06:05:36.896Z,29.20
2018-07-31T06:08:08.403Z,29.60
2018-07-31T06:10:39.664Z,29.40
2018-07-31T06:15:41.662Z,29.20
2018-07-31T06:18:13.933Z,29.10
2018-07-31T06:20:45.237Z,29.00
2018-07-31T06:23:16.740Z,28.70
2018-07-31T06:25:48.057Z,28.50
2018-07-31T06:28:19.283Z,28.20
2018-07-31T06:30:50.560Z,28.40
2018-07-31T06:33:21.771Z,29.10
2018-07-31T06:35:53.552Z,29.60
2018-07-31T06:38:24.803Z,30.00
2018-07-31T06:43:26.560Z,30.10
2018-07-31T06:45:57.868Z,29.70
2018-07-31T06:48:29.279Z,29.00
2018-07-31T06:51:00.531Z,28.30
2018-07-31T06:53:31.742Z,27.90
2018-07-31T06:56:02.978Z,27.50
2018-07-31T06:58:34.349Z,27.00
2018-07-31T07:01:05.601Z,27.10
2018-07-31T07:03:37.116Z,27.70
2018-07-31T07:06:08.355Z,28.40
2018-07-31T07:08:39.684Z,28.40
2018-07-31T07:11:10.998Z,28.10
2018-07-31T07:13:42.202Z,27.90
2018-07-31T07:16:13.530Z,27.30
2018-07-31T07:18:46.239Z,26.90
2018-07-31T07:21:17.980Z,26.80
2018-07-31T07:23:50.808Z,27.00
2018-07-31T07:26:21.835Z,26.90
2018-07-31T07:28:52.886Z,26.90
2018-07-31T07:33:54.121Z,26.90
2018-07-31T07:36:25.182Z,26.70
2018-07-31T07:38:56.565Z,26.50
2018-07-31T07:41:27.433Z,26.50
2018-07-31T07:43:58.619Z,26.50
2018-07-31T07:46:29.684Z,26.50
2018-07-31T07:49:01.146Z,26.50
2018-07-31T07:51:32.370Z,26.60
2018-07-31T07:56:33.401Z,27.20
2018-07-31T07:59:04.932Z,27.50
2018-07-31T08:01:35.903Z,28.00
2018-07-31T08:04:07.003Z,28.10
2018-07-31T08:06:38.035Z,27.90
2018-07-31T08:09:11.048Z,27.90
2018-07-31T08:11:41.929Z,28.00
2018-07-31T08:14:12.994Z,28.10
2018-07-31T08:16:44.033Z,27.90
2018-07-31T08:19:15.111Z,28.20
2018-07-31T08:21:46.137Z,28.20
2018-07-31T08:24:17.627Z,28.30
2018-07-31T08:29:18.553Z,28.70
2018-07-31T08:31:51.764Z,28.60
2018-07-31T08:34:22.815Z,28.70
2018-07-31T08:39:25.044Z,28.80
2018-07-31T08:41:56.087Z,28.70
2018-07-31T08:44:27.080Z,28.70
2018-07-31T08:46:58.118Z,29.10
2018-07-31T08:49:29.170Z,29.30
2018-07-31T08:52:08.213Z,29.60
2018-07-31T08:54:39.597Z,29.80
2018-07-31T08:57:10.688Z,29.60
2018-07-31T08:59:41.597Z,29.60
2018-07-31T09:02:12.727Z,29.70
2018-07-31T09:04:43.661Z,30.00
2018-07-31T09:07:15.083Z,30.40
2018-07-31T09:09:45.991Z,30.90
2018-07-31T09:12:17.826Z,31.30
2018-07-31T09:14:48.984Z,31.50
2018-07-31T09:17:20.420Z,31.60
2018-07-31T09:19:51.671Z,31.40
2018-07-31T09:22:22.999Z,31.50
2018-07-31T09:28:40.764Z,31.60
2018-07-31T09:31:15.355Z,31.70
2018-07-31T09:33:48.567Z,31.50
2018-07-31T09:36:20.136Z,31.20
2018-07-31T09:38:52.342Z,31.10
2018-07-31T09:41:23.725Z,30.60
2018-07-31T09:46:58.361Z,30.40
2018-07-31T09:49:30.524Z,30.60
2018-07-31T09:52:01.867Z,30.80
2018-07-31T09:54:33.264Z,30.80
2018-07-31T09:59:40.855Z,31.70
2018-07-31T10:02:12.278Z,31.60
2018-07-31T10:04:43.396Z,31.70
2018-07-31T10:07:14.688Z,32.10
2018-07-31T10:09:45.965Z,33.00
2018-07-31T10:12:17.494Z,33.50
2018-07-31T10:14:48.719Z,33.90
2018-07-31T10:17:19.931Z,34.20
2018-07-31T10:19:51.235Z,34.10
2018-07-31T10:22:22.473Z,34.20
2018-07-31T10:24:53.896Z,34.40
2018-07-31T10:27:25.360Z,34.50
2018-07-31T10:29:56.782Z,34.60
2018-07-31T10:32:28.128Z,34.10
2018-07-31T10:34:59.496Z,34.30
2018-07-31T10:37:30.742Z,34.30
2018-07-31T10:40:02.383Z,34.20
2018-07-31T10:42:33.740Z,34.50
2018-07-31T10:45:05.124Z,34.70
2018-07-31T10:47:36.340Z,34.80
2018-07-31T10:50:07.865Z,34.90
2018-07-31T10:52:39.102Z,35.20
2018-07-31T10:55:10.627Z,34.30
2018-07-31T10:57:42.187Z,34.60
2018-07-31T11:00:13.658Z,34.80
2018-07-31T11:02:45.117Z,34.70
2018-07-31T11:05:16.525Z,34.90
2018-07-31T11:07:47.962Z,34.90
2018-07-31T11:10:19.402Z,35.00
2018-07-31T11:12:50.756Z,34.40
2018-07-31T11:15:22.152Z,34.00
2018-07-31T11:17:53.655Z,33.70
2018-07-31T11:20:24.985Z,33.40
2018-07-31T11:22:56.541Z,33.40
2018-07-31T11:25:27.780Z,33.30
2018-07-31T11:27:59.122Z,33.40
2018-07-31T11:30:30.400Z,33.50
2018-07-31T11:33:01.925Z,33.40
2018-07-31T11:35:33.289Z,33.60
2018-07-31T11:38:04.723Z,33.80
2018-07-31T11:40:35.910Z,33.80
2018-07-31T11:43:07.464Z,33.80
2018-07-31T11:45:38.781Z,33.10
2018-07-31T11:48:10.205Z,33.20
2018-07-31T11:50:41.458Z,33.30
2018-07-31T11:53:12.720Z,33.90
2018-07-31T11:55:43.970Z,34.20
2018-07-31T11:58:16.309Z,34.10
2018-07-31T12:00:47.466Z,33.90
2018-07-31T12:03:19.086Z,34.20
2018-07-31T12:05:50.578Z,34.20
2018-07-31T12:08:22.452Z,33.90
2018-07-31T12:10:53.779Z,33.40
2018-07-31T12:13:25.353Z,33.00
2018-07-31T12:15:56.662Z,32.90
2018-07-31T12:18:28.438Z,33.20
2018-07-31T12:20:59.729Z,33.50
2018-07-31T12:23:31.020Z,33.90
2018-07-31T12:26:02.658Z,34.00
2018-07-31T12:28:33.985Z,34.30
2018-07-31T12:31:05.779Z,34.10
2018-07-31T12:33:38.687Z,34.10
2018-07-31T12:36:10.084Z,34.20
2018-07-31T12:38:40.964Z,34.40
2018-07-31T12:41:12.110Z,34.60
2018-07-31T12:43:43.136Z,34.90
2018-07-31T12:46:14.399Z,34.70
2018-07-31T12:48:45.514Z,34.40
2018-07-31T12:51:17.073Z,34.20
2018-07-31T12:53:49.516Z,34.20
2018-07-31T12:56:20.597Z,34.00
2018-07-31T12:58:52.602Z,33.60
2018-07-31T13:01:23.698Z,32.90
2018-07-31T13:03:54.761Z,32.30
2018-07-31T13:08:56.005Z,32.40
2018-07-31T13:11:26.923Z,32.70
2018-07-31T13:13:57.925Z,33.20
2018-07-31T13:16:29.061Z,33.90
2018-07-31T13:19:00.149Z,34.40
2018-07-31T13:21:31.437Z,34.40
2018-07-31T13:24:02.741Z,34.70
2018-07-31T13:26:34.071Z,34.90
2018-07-31T13:29:05.402Z,35.00
2018-07-31T13:31:36.404Z,34.80
2018-07-31T13:34:07.375Z,34.40
2018-07-31T13:36:38.427Z,34.60
2018-07-31T13:39:11.493Z,34.80
2018-07-31T13:41:42.863Z,34.90
2018-07-31T13:44:14.063Z,35.00
2018-07-31T13:46:45.021Z,35.00
2018-07-31T13:49:16.101Z,35.00
2018-07-31T13:51:47.019Z,34.50
2018-07-31T13:54:18.245Z,34.10
2018-07-31T13:56:52.424Z,33.70
2018-07-31T13:59:23.439Z,33.70
2018-07-31T14:01:56.211Z,33.40
2018-07-31T14:04:27.581Z,33.60
2018-07-31T14:06:59.153Z,33.70
2018-07-31T14:09:30.243Z,33.70
2018-07-31T14:12:01.601Z,33.60
2018-07-31T14:14:32.758Z,33.50
2018-07-31T14:17:03.811Z,33.50
2018-07-31T14:19:34.929Z,33.50
2018-07-31T14:22:06.049Z,33.00
2018-07-31T14:24:37.193Z,32.90
2018-07-31T14:27:08.696Z,32.60
2018-07-31T14:29:40.291Z,32.50
2018-07-31T14:32:11.279Z,32.50
2018-07-31T14:34:42.413Z,32.50
2018-07-31T14:37:13.448Z,32.40
2018-07-31T14:39:44.487Z,32.60
2018-07-31T14:42:15.751Z,32.70
2018-07-31T14:44:46.940Z,32.30
2018-07-31T14:47:17.884Z,32.00
2018-07-31T14:49:49.412Z,32.00
2018-07-31T14:52:20.319Z,32.00
2018-07-31T14:54:51.583Z,31.90
2018-07-31T14:57:22.848Z,31.90
2018-07-31T14:59:54.225Z,31.90
2018-07-31T15:02:25.192Z,31.70
2018-07-31T15:04:56.562Z,31.80
2018-07-31T15:07:27.733Z,31.90
2018-07-31T15:09:59.010Z,31.80
2018-07-31T15:12:30.090Z,31.80
2018-07-31T15:15:01.500Z,31.80
2018-07-31T15:20:13.052Z,31.90
2018-07-31T15:22:44.514Z,31.90
2018-07-31T15:25:15.885Z,31.90
2018-07-31T15:27:47.427Z,31.80
2018-07-31T15:30:18.917Z,31.80
2018-07-31T15:32:50.432Z,31.80
2018-07-31T15:35:22.023Z,31.60
2018-07-31T15:37:53.862Z,31.50
2018-07-31T15:40:25.325Z,31.40
2018-07-31T15:42:57.649Z,31.20
2018-07-31T15:45:29.153Z,31.20
2018-07-31T15:48:01.047Z,31.00
2018-07-31T15:50:33.206Z,31.00
2018-07-31T15:53:04.669Z,31.10
2018-07-31T15:55:36.105Z,30.90
2018-07-31T15:58:07.581Z,30.90
2018-07-31T16:00:38.964Z,30.90
2018-07-31T16:03:10.427Z,30.80
2018-07-31T16:05:41.690Z,30.60
2018-07-31T16:08:14.016Z,30.40
2018-07-31T16:10:45.520Z,30.30
2018-07-31T16:13:17.872Z,30.20
2018-07-31T16:15:49.519Z,30.20
2018-07-31T16:18:20.915Z,30.20
2018-07-31T16:20:52.963Z,30.10
2018-07-31T16:23:24.305Z,30.00
2018-07-31T16:25:55.826Z,30.00
2018-07-31T16:28:42.073Z,30.00
2018-07-31T16:31:13.377Z,29.80
2018-07-31T16:33:44.932Z,29.60
2018-07-31T16:36:16.673Z,29.50
2018-07-31T16:38:50.309Z,29.60
2018-07-31T16:41:21.944Z,29.70
2018-07-31T16:43:54.149Z,29.70
2018-07-31T16:46:25.308Z,29.80
2018-07-31T16:48:56.797Z,29.80
2018-07-31T16:51:28.255Z,29.80
2018-07-31T16:53:59.528Z,29.70
2018-07-31T16:56:30.857Z,29.50
2018-07-31T16:59:02.292Z,29.30
2018-07-31T17:01:33.637Z,29.00
2018-07-31T17:04:05.007Z,29.00
2018-07-31T17:06:36.284Z,28.90
2018-07-31T17:09:09.377Z,29.00
2018-07-31T17:11:40.760Z,29.00
2018-07-31T17:14:12.105Z,29.00
2018-07-31T17:16:43.674Z,28.90
2018-07-31T17:19:14.991Z,28.90
2018-07-31T17:21:46.560Z,28.90
2018-07-31T17:24:18.089Z,28.90
2018-07-31T17:26:49.460Z,28.90
2018-07-31T17:29:20.962Z,28.90
2018-07-31T17:31:54.030Z,28.80
2018-07-31T17:34:25.293Z,28.70
2018-07-31T17:36:57.513Z,28.60
2018-07-31T17:39:28.908Z,28.50
2018-07-31T17:42:00.517Z,28.40
2018-07-31T17:44:31.751Z,28.10
2018-07-31T17:47:03.218Z,27.90
2018-07-31T17:49:34.655Z,27.90
2018-07-31T17:52:06.013Z,27.80
2018-07-31T17:54:37.356Z,27.70
2018-07-31T18:00:14.970Z,27.70
2018-07-31T18:02:46.262Z,27.50
2018-07-31T18:05:17.592Z,27.50
2018-07-31T18:07:48.725Z,27.40
2018-07-31T18:10:20.055Z,27.40
2018-07-31T18:12:51.399Z,27.20
2018-07-31T18:15:22.795Z,27.20
2018-07-31T18:17:54.483Z,27.20
2018-07-31T18:20:25.934Z,27.10
2018-07-31T18:22:58.191Z,27.00
2018-07-31T18:25:29.575Z,26.80
2018-07-31T18:28:00.828Z,26.50
2018-07-31T18:30:32.118Z,26.40
2018-07-31T18:33:03.369Z,26.40
2018-07-31T18:35:34.805Z,26.30
2018-07-31T18:38:06.335Z,26.20
2018-07-31T18:40:37.717Z,26.20
2018-07-31T18:43:09.021Z,26.20
2018-07-31T18:45:40.219Z,26.00
2018-07-31T18:48:11.802Z,26.00
2018-07-31T18:50:43.050Z,25.70
2018-07-31T18:53:15.284Z,25.60
2018-07-31T18:55:46.562Z,25.60
2018-07-31T18:58:18.528Z,25.50
2018-07-31T19:00:49.882Z,25.50
2018-07-31T19:03:21.573Z,25.40
2018-07-31T19:05:52.853Z,25.40
2018-07-31T19:08:24.302Z,25.10
2018-07-31T19:10:55.658Z,25.20
2018-07-31T19:13:26.938Z,25.20
2018-07-31T19:15:58.427Z,25.00
2018-07-31T19:18:29.756Z,25.00
2018-07-31T19:21:01.182Z,24.90
2018-07-31T19:23:32.417Z,24.90
2018-07-31T19:26:03.708Z,24.70
2018-07-31T19:28:35.117Z,24.70
2018-07-31T19:31:06.449Z,24.60
2018-07-31T19:33:37.729Z,24.60
2018-07-31T19:36:09.639Z,24.40
2018-07-31T19:38:40.904Z,24.40
2018-07-31T19:41:12.712Z,24.30
2018-07-31T19:43:44.097Z,24.30
2018-07-31T19:46:15.960Z,24.10
2018-07-31T19:51:18.181Z,23.90
2018-07-31T19:53:51.366Z,23.80
2018-07-31T19:56:22.763Z,23.70
2018-07-31T19:58:54.901Z,23.60
2018-07-31T20:01:26.527Z,23.60
2018-07-31T20:03:57.945Z,23.60
2018-07-31T20:06:29.332Z,23.60
2018-07-31T20:09:00.808Z,23.60
2018-07-31T20:11:32.178Z,23.50
2018-07-31T20:14:03.494Z,23.50
2018-07-31T20:16:34.892Z,23.40
2018-07-31T20:19:06.235Z,23.40
2018-07-31T20:21:37.645Z,23.40
2018-07-31T20:24:09.028Z,23.30
2018-07-31T20:26:40.387Z,23.30
2018-07-31T20:31:42.466Z,23.10
2018-07-31T20:36:44.105Z,23.00
2018-07-31T20:39:15.554Z,23.00
2018-07-31T20:41:46.914Z,22.90
2018-07-31T20:44:18.667Z,22.80
2018-07-31T20:46:49.983Z,22.60
2018-07-31T20:49:21.370Z,22.50
2018-07-31T20:51:54.222Z,22.30
2018-07-31T20:54:25.777Z,22.30
2018-07-31T20:56:58.273Z,22.20
2018-07-31T20:59:30.001Z,22.00
2018-07-31T21:02:01.385Z,21.90
2018-07-31T21:04:33.156Z,21.90
2018-07-31T21:09:35.073Z,21.80
2018-07-31T21:12:06.469Z,21.70
2018-07-31T21:14:37.786Z,21.70
2018-07-31T21:17:09.130Z,21.60
2018-07-31T21:19:40.369Z,21.60
2018-07-31T21:22:11.715Z,21.50
2018-07-31T21:24:42.901Z,21.50
2018-07-31T21:27:14.294Z,21.50
2018-07-31T21:29:45.800Z,21.40
2018-07-31T21:34:47.723Z,21.10
2018-07-31T21:37:19.126Z,21.00
2018-07-31T21:42:25.920Z,20.80
2018-07-31T21:44:57.095Z,20.80
2018-07-31T21:47:28.441Z,20.60
2018-07-31T21:49:59.556Z,20.60
2018-07-31T21:55:01.745Z,20.60
2018-07-31T21:57:32.697Z,20.60
2018-07-31T22:02:34.341Z,20.60
2018-07-31T22:07:36.459Z,20.50
2018-07-31T22:10:08.132Z,20.40
2018-07-31T22:12:39.742Z,20.40
2018-07-31T22:17:41.805Z,20.20
2018-07-31T22:20:13.123Z,20.00
2018-07-31T22:22:44.533Z,20.00
2018-07-31T22:25:15.935Z,20.00
2018-07-31T22:27:47.499Z,19.80
2018-07-31T22:30:18.816Z,19.80
2018-07-31T22:32:50.160Z,19.80
2018-07-31T22:35:21.490Z,19.80
2018-07-31T22:37:53.007Z,19.70
2018-07-31T22:40:24.205Z,19.70
2018-07-31T22:42:55.800Z,19.70
2018-07-31T22:45:27.144Z,19.60
2018-07-31T22:47:58.594Z,19.50
2018-07-31T22:50:31.342Z,19.60
2018-07-31T22:53:02.608Z,19.60
2018-07-31T22:55:33.964Z,19.60
2018-07-31T22:58:05.343Z,19.50
2018-07-31T23:00:36.666Z,19.40
2018-07-31T23:03:07.889Z,19.40
2018-07-31T23:05:39.313Z,19.30
2018-07-31T23:08:10.603Z,19.30
2018-07-31T23:10:42.106Z,19.40
2018-07-31T23:13:14.034Z,19.40
2018-07-31T23:15:45.483Z,19.40
2018-07-31T23:18:17.199Z,19.40
2018-07-31T23:20:49.035Z,19.20
2018-07-31T23:23:20.392Z,18.80
2018-07-31T23:25:51.839Z,18.70
2018-07-31T23:28:23.237Z,18.60
2018-07-31T23:33:24.931Z,18.80
2018-07-31T23:35:56.646Z,18.80
2018-07-31T23:38:28.864Z,18.70
2018-07-31T23:41:00.186Z,18.50
2018-07-31T23:43:31.502Z,18.40
2018-07-31T23:46:02.988Z,18.40
2018-07-31T23:48:34.398Z,18.50
2018-07-31T23:51:05.675Z,18.40
2018-07-31T23:53:37.074Z,18.50
2018-07-31T23:56:08.443Z,18.40
2018-07-31T23:58:39.919Z,18.50
